Time;durP1;ratioP1;P1;durP2;ratioP2;P2;SDS_P1;SDS_P2;PMS_P1;PMS_P2;Temp;Humidity;BMP_temperature;BMP_pressure;BME280_temperature;BME280_humidity;BME280_pressure;Samples;Min_cycle;Max_cycle;Signal;HPM_P1;HPM_P2
2024/01/06 00:00:15;;;;;;;22.80;12.57;;;;;;;10.97;70.30;94382.66;5073172;28;20194;-65
2024/01/06 00:02:41;;;;;;;22.47;12.27;;;;;;;11.30;70.18;94448.50;5074000;28;20216;-67
2024/01/06 00:05:08;;;;;;;23.03;12.37;;;;;;;11.28;70.37;94447.84;5074419;28;20221;-72
2024/01/06 00:07:35;;;;;;;19.93;11.40;;;;;;;11.26;70.22;94426.69;5073823;28;20178;-68
2024/01/06 00:10:02;;;;;;;17.63;12.37;;;;;;;11.26;70.15;94420.78;5073519;28;20230;-67
2024/01/06 00:12:29;;;;;;;21.70;12.80;;;;;;;11.11;70.08;94396.69;5073514;28;20194;-71
2024/01/06 00:14:56;;;;;;;23.50;14.20;;;;;;;11.24;70.07;94438.88;5072803;28;20217;-74
2024/01/06 00:17:24;;;;;;;22.50;13.60;;;;;;;10.86;70.22;94388.00;5073278;28;20186;-77
2024/01/06 00:19:51;;;;;;;21.80;13.03;;;;;;;11.13;70.05;94441.63;5073409;28;20198;-77
2024/01/06 00:22:19;;;;;;;20.20;13.30;;;;;;;11.23;70.09;94451.81;5073444;28;20225;-75
2024/01/06 00:24:45;;;;;;;22.20;13.47;;;;;;;10.93;70.26;94412.84;5073888;28;20220;-75
2024/01/06 00:27:13;;;;;;;25.80;14.47;;;;;;;11.13;70.01;94433.97;5073381;28;20190;-75
2024/01/06 00:29:40;;;;;;;23.17;14.23;;;;;;;11.08;70.05;94420.00;5076844;28;20201;-71
2024/01/06 00:32:07;;;;;;;20.77;14.00;;;;;;;10.86;69.71;94414.38;5075300;28;20257;-71
2024/01/06 00:34:35;;;;;;;22.30;13.67;;;;;;;11.17;70.16;94462.63;5079589;28;20222;-70
2024/01/06 00:37:02;;;;;;;18.73;12.63;;;;;;;11.17;69.99;94465.19;5083363;28;20190;-65
2024/01/06 00:39:29;;;;;;;24.47;14.63;;;;;;;10.87;70.17;94420.28;5086182;28;20195;-68
2024/01/06 00:41:55;;;;;;;21.13;14.57;;;;;;;10.96;70.20;94434.75;5073848;28;20182;-74
2024/01/06 00:44:22;;;;;;;22.20;14.97;;;;;;;11.12;70.20;94444.34;5072791;28;20210;-69
2024/01/06 00:46:49;;;;;;;29.63;16.77;;;;;;;10.81;70.20;94401.22;5072871;28;20563;-67
2024/01/06 00:49:15;;;;;;;27.77;16.10;;;;;;;10.99;70.16;94421.69;5072630;28;20197;-70
2024/01/06 00:51:43;;;;;;;35.30;16.80;;;;;;;10.70;70.38;94381.78;5073200;28;20198;-72
2024/01/06 00:54:10;;;;;;;28.10;17.00;;;;;;;11.03;70.25;94433.25;5073250;28;20214;-70
2024/01/06 00:56:37;;;;;;;24.93;16.27;;;;;;;10.71;70.19;94395.41;5078331;28;20664;-71
2024/01/06 00:59:04;;;;;;;28.03;17.50;;;;;;;10.98;70.29;94433.69;5082026;28;20190;-68
2024/01/06 01:01:31;;;;;;;29.87;16.97;;;;;;;10.79;70.21;94419.28;5083544;28;20195;-75
2024/01/06 01:03:58;;;;;;;28.43;17.93;;;;;;;10.84;70.49;94418.84;5052847;28;20187;-71
2024/01/06 01:06:24;;;;;;;29.13;17.10;;;;;;;10.94;70.62;94441.78;5069453;28;20182;-74
2024/01/06 01:08:53;;;;;;;33.77;17.00;;;;;;;10.64;70.40;94394.34;5071414;28;20198;-69
2024/01/06 01:11:20;;;;;;;26.77;17.00;;;;;;;10.91;70.55;94430.09;5072480;28;20588;-75
2024/01/06 01:13:47;;;;;;;29.67;17.63;;;;;;;10.89;70.50;94429.44;5072944;28;20214;-75
2024/01/06 01:16:14;;;;;;;32.20;18.10;;;;;;;10.82;70.58;94419.94;5072569;28;20189;-76
2024/01/06 01:18:41;;;;;;;28.40;17.40;;;;;;;10.73;70.60;94393.47;5077332;28;20194;-67
2024/01/06 01:21:08;;;;;;;25.50;17.90;;;;;;;10.87;70.60;94431.34;5072960;28;20198;-77
2024/01/06 01:23:34;;;;;;;35.20;18.03;;;;;;;10.87;70.60;94428.78;5084124;28;20657;-72
2024/01/06 01:26:03;;;;;;;29.70;18.27;;;;;;;10.85;70.64;94415.34;5074810;28;20198;-77
2024/01/06 01:28:30;;;;;;;36.73;18.93;;;;;;;10.84;70.74;94434.19;5071982;28;20259;-68
2024/01/06 01:30:56;;;;;;;32.33;19.47;;;;;;;10.82;70.77;94423.28;5072279;28;20189;-69
2024/01/06 01:33:24;;;;;;;28.50;17.93;;;;;;;10.66;70.66;94395.00;5071770;28;20207;-72
2024/01/06 01:35:50;;;;;;;30.77;18.13;;;;;;;10.67;70.81;94401.75;5071595;28;20282;-73
2024/01/06 01:38:17;;;;;;;32.37;18.97;;;;;;;10.80;70.88;94414.97;5071739;28;20612;-75
2024/01/06 01:40:44;;;;;;;30.53;18.77;;;;;;;10.67;70.74;94388.97;5071901;28;20609;-68
2024/01/06 01:43:18;;;;;;;31.13;18.33;;;;;;;10.77;70.94;94399.91;5071286;28;20601;-73
2024/01/06 01:45:49;;;;;;;32.40;18.80;;;;;;;10.77;70.99;94402.47;5071987;28;20194;-75
2024/01/06 01:48:16;;;;;;;27.33;18.13;;;;;;;10.76;70.98;94394.00;5071666;28;20229;-77
2024/01/06 01:50:43;;;;;;;31.27;18.97;;;;;;;10.67;71.03;94389.75;5071767;28;20198;-70
2024/01/06 01:53:10;;;;;;;33.27;18.77;;;;;;;10.68;70.95;94391.34;5071149;28;20194;-76
2024/01/06 01:55:36;;;;;;;32.93;20.00;;;;;;;10.75;70.92;94401.78;5071516;28;20692;-73
2024/01/06 01:58:04;;;;;;;37.33;18.27;;;;;;;10.54;71.18;94364.56;5071577;28;20183;-73
2024/01/06 02:00:32;;;;;;;34.17;18.13;;;;;;;10.75;70.96;94383.91;5071410;28;20653;-75
2024/01/06 02:03:00;;;;;;;27.60;17.73;;;;;;;10.76;71.23;94390.63;5071048;28;20194;-74
2024/01/06 02:05:27;;;;;;;28.03;18.03;;;;;;;10.59;71.16;94368.44;5071357;28;20205;-69
2024/01/06 02:07:54;;;;;;;37.50;18.57;;;;;;;10.73;71.11;94375.56;5070391;28;20194;-68
2024/01/06 02:10:21;;;;;;;31.93;18.30;;;;;;;10.78;71.11;94378.50;5071113;28;20728;-76
2024/01/06 02:12:49;;;;;;;32.20;18.93;;;;;;;10.59;71.13;94350.53;5069711;28;20230;-74
2024/01/06 02:15:15;;;;;;;25.17;16.87;;;;;;;10.78;71.01;94370.81;5071172;28;20665;-71
2024/01/06 02:17:44;;;;;;;28.03;17.83;;;;;;;10.75;71.12;94364.25;5070498;28;20666;-76
2024/01/06 02:20:14;;;;;;;31.30;18.03;;;;;;;10.78;71.19;94379.28;5070947;28;20198;-71
2024/01/06 02:22:41;;;;;;;26.53;15.90;;;;;;;10.73;71.02;94355.91;5071061;28;20215;-73
2024/01/06 02:25:12;;;;;;;31.57;17.60;;;;;;;10.80;71.03;94361.25;5070790;28;20248;-75
2024/01/06 02:27:39;;;;;;;28.20;17.13;;;;;;;10.79;71.11;94352.78;5070582;28;20613;-75
2024/01/06 02:30:07;;;;;;;29.47;17.80;;;;;;;10.82;71.13;94340.63;5071234;28;20179;-77
2024/01/06 02:32:34;;;;;;;31.47;17.73;;;;;;;10.75;70.98;94330.19;5071188;28;20195;-76
2024/01/06 02:35:01;;;;;;;28.77;17.37;;;;;;;10.76;70.66;94329.25;5070226;28;20226;-73
2024/01/06 02:37:27;;;;;;;30.60;16.00;;;;;;;10.85;71.06;94345.47;5071126;28;20562;-73
2024/01/06 02:39:56;;;;;;;23.07;15.67;;;;;;;10.86;71.02;94339.41;5070127;28;20190;-74
2024/01/06 02:42:23;;;;;;;28.83;16.90;;;;;;;10.86;71.00;94329.97;5071091;28;20571;-75
2024/01/06 02:44:50;;;;;;;27.20;17.40;;;;;;;10.87;70.95;94339.25;5070500;28;20222;-75
2024/01/06 02:47:17;;;;;;;30.50;16.50;;;;;;;10.87;71.17;94334.13;5070776;28;20190;-75
2024/01/06 02:49:44;;;;;;;30.33;17.17;;;;;;;10.70;70.98;94312.72;5070188;28;20191;-76
2024/01/06 02:52:11;;;;;;;26.20;16.70;;;;;;;10.88;70.89;94322.97;5070425;28;20186;-69
2024/01/06 02:54:38;;;;;;;25.07;15.20;;;;;;;10.85;70.92;94314.78;5070031;28;20214;-77
2024/01/06 02:57:06;;;;;;;29.37;16.60;;;;;;;10.84;71.09;94308.88;5070271;28;20191;-69
2024/01/06 02:59:34;;;;;;;26.23;16.00;;;;;;;10.91;70.91;94316.72;5069793;28;20217;-73
2024/01/06 03:02:02;;;;;;;23.20;15.73;;;;;;;10.90;71.22;94318.50;5070184;28;20693;-75
2024/01/06 03:04:28;;;;;;;23.27;15.80;;;;;;;10.92;70.90;94311.44;5073005;28;20183;-73
2024/01/06 03:06:55;;;;;;;23.57;15.73;;;;;;;10.92;71.01;94306.34;5089932;28;20194;-69
2024/01/06 03:09:22;;;;;;;22.93;14.67;;;;;;;10.94;70.88;94308.75;5086356;28;20190;-72
2024/01/06 03:11:49;;;;;;;21.63;14.17;;;;;;;10.85;70.95;94292.56;5070940;28;20229;-75
2024/01/06 03:14:17;;;;;;;25.17;15.13;;;;;;;10.95;71.07;94311.16;5070998;28;20206;-73
2024/01/06 03:16:44;;;;;;;22.43;14.00;;;;;;;10.96;70.94;94306.84;5070829;28;20647;-76
2024/01/06 03:19:10;;;;;;;21.37;13.77;;;;;;;10.94;71.02;94301.09;5071828;28;20190;-73
2024/01/06 03:21:37;;;;;;;26.23;15.10;;;;;;;10.94;70.95;94307.00;5071084;28;20195;-66
2024/01/06 03:24:05;;;;;;;25.17;15.73;;;;;;;10.94;71.09;94306.22;5073326;28;20565;-68
2024/01/06 03:26:32;;;;;;;26.33;14.27;;;;;;;10.90;71.00;94299.78;5053197;28;20285;-67
2024/01/06 03:29:02;;;;;;;25.13;14.70;;;;;;;10.87;71.04;94300.06;5057331;28;20194;-66
2024/01/06 03:31:30;;;;;;;24.50;14.70;;;;;;;10.85;70.92;94304.53;5056951;28;20191;-71
2024/01/06 03:33:57;;;;;;;22.23;14.10;;;;;;;10.35;71.07;94230.97;5053168;28;20187;-67
2024/01/06 03:36:24;;;;;;;23.77;14.63;;;;;;;10.87;71.11;94300.06;5066309;28;20278;-70
2024/01/06 03:38:50;;;;;;;22.87;14.13;;;;;;;10.80;71.24;94290.44;5072610;28;20202;-72
2024/01/06 03:41:17;;;;;;;22.60;14.60;;;;;;;10.85;71.02;94286.63;5085971;28;20182;-72
2024/01/06 03:43:44;;;;;;;23.00;14.17;;;;;;;10.84;71.20;94290.13;5077923;28;20533;-74
2024/01/06 03:46:11;;;;;;;21.07;13.20;;;;;;;10.61;70.92;94259.91;5070527;28;20198;-72
2024/01/06 03:48:39;;;;;;;23.10;13.60;;;;;;;10.82;71.09;94305.63;5069748;28;20198;-70
2024/01/06 03:51:06;;;;;;;25.43;14.20;;;;;;;10.80;71.09;94303.25;5069693;28;20661;-73
2024/01/06 03:53:32;;;;;;;25.33;13.93;;;;;;;10.77;71.02;94283.06;5069260;28;20715;-74
2024/01/06 03:55:59;;;;;;;24.17;13.80;;;;;;;10.77;71.08;94289.94;5069929;28;20209;-75
2024/01/06 03:58:26;;;;;;;20.20;12.77;;;;;;;10.80;71.05;94292.22;5069622;28;20194;-74
2024/01/06 04:00:53;;;;;;;24.43;13.43;;;;;;;10.78;71.12;94289.78;5069848;28;20275;-72
2024/01/06 04:03:19;;;;;;;21.57;12.30;;;;;;;10.79;70.93;94296.53;5069457;28;20198;-69
2024/01/06 04:05:48;;;;;;;18.83;12.23;;;;;;;10.63;71.00;94272.56;5069409;28;20523;-72
2024/01/06 04:08:14;;;;;;;19.60;12.77;;;;;;;10.66;71.13;94277.38;5069284;28;20193;-71
2024/01/06 04:10:41;;;;;;;19.43;11.87;;;;;;;10.80;71.03;94294.75;5069464;28;20259;-70
2024/01/06 04:13:08;;;;;;;20.90;12.73;;;;;;;10.59;70.99;94254.16;5069415;28;20243;-71
2024/01/06 04:15:35;;;;;;;21.37;11.37;;;;;;;10.79;71.15;94282.91;5069544;28;20222;-75
2024/01/06 04:18:03;;;;;;;20.83;12.13;;;;;;;10.78;70.87;94294.88;5069708;28;20248;-72
2024/01/06 04:20:30;;;;;;;20.23;12.73;;;;;;;10.78;71.05;94288.97;5069372;28;20271;-73
2024/01/06 04:22:59;;;;;;;19.67;11.83;;;;;;;10.78;71.02;94291.53;5069308;28;20190;-70
2024/01/06 04:25:25;;;;;;;22.33;12.17;;;;;;;10.77;71.08;94289.94;5069164;28;20182;-73
2024/01/06 04:27:52;;;;;;;16.30;11.17;;;;;;;10.70;71.22;94287.16;5069402;28;20293;-74
2024/01/06 04:30:20;;;;;;;20.20;11.83;;;;;;;10.74;71.07;94293.59;5069410;28;20224;-72
2024/01/06 04:32:48;;;;;;;17.77;11.93;;;;;;;10.73;71.18;94309.88;5069463;28;20183;-73
2024/01/06 04:35:15;;;;;;;19.67;11.77;;;;;;;10.74;71.27;94313.25;5068949;28;20222;-74
2024/01/06 04:37:42;;;;;;;18.00;11.87;;;;;;;10.72;71.14;94299.81;5069667;28;20187;-77
2024/01/06 04:40:11;;;;;;;17.40;10.90;;;;;;;10.44;71.17;94270.97;5068978;28;20194;-66
2024/01/06 04:42:38;;;;;;;14.93;10.93;;;;;;;10.70;71.14;94306.81;5069521;28;20189;-75
2024/01/06 04:45:06;;;;;;;13.77;10.53;;;;;;;10.70;71.23;94309.38;5072887;28;20178;-74
2024/01/06 04:47:33;;;;;;;15.33;10.70;;;;;;;10.51;71.19;94282.22;5073319;28;20183;-76
2024/01/06 04:50:00;;;;;;;19.43;11.27;;;;;;;10.69;71.24;94316.25;5073156;28;20269;-78
2024/01/06 04:52:27;;;;;;;19.43;10.87;;;;;;;10.69;71.27;94320.56;5073344;28;20190;-74
2024/01/06 04:54:53;;;;;;;21.17;11.27;;;;;;;10.66;71.02;94323.41;5073337;28;20570;-69
2024/01/06 04:57:21;;;;;;;15.10;10.67;;;;;;;10.68;71.22;94324.88;5073011;28;20197;-66
2024/01/06 04:59:48;;;;;;;18.20;10.60;;;;;;;10.62;71.15;94304.19;5073662;28;20182;-69
2024/01/06 05:02:16;;;;;;;21.53;11.83;;;;;;;10.49;71.15;94282.38;5072568;28;20268;-70
2024/01/06 05:04:42;;;;;;;16.17;10.60;;;;;;;10.66;71.24;94313.97;5073086;28;20191;-72
2024/01/06 05:07:09;;;;;;;17.70;10.47;;;;;;;10.64;71.22;94292.88;5073013;28;20202;-68
2024/01/06 05:09:36;;;;;;;14.53;10.10;;;;;;;10.63;71.14;94293.03;5073879;28;20583;-73
2024/01/06 05:12:03;;;;;;;14.97;10.23;;;;;;;10.63;71.18;94293.84;5087330;28;20312;-73
2024/01/06 05:14:31;;;;;;;17.67;10.77;;;;;;;10.63;71.25;94277.69;5088439;28;20198;-71
2024/01/06 05:16:58;;;;;;;14.83;10.17;;;;;;;10.61;71.34;94294.91;5073072;28;20183;-73
2024/01/06 05:19:24;;;;;;;18.47;10.57;;;;;;;10.32;71.03;94249.97;5072397;28;20666;-70
2024/01/06 05:21:51;;;;;;;15.83;10.13;;;;;;;10.49;71.35;94263.66;5072516;28;20205;-68
2024/01/06 05:24:19;;;;;;;13.27;9.30;;;;;;;10.60;71.26;94275.41;5072473;28;20197;-71
2024/01/06 05:26:45;;;;;;;20.00;10.27;;;;;;;10.59;71.19;94266.94;5072174;28;20634;-69
2024/01/06 05:29:12;;;;;;;15.50;9.73;;;;;;;10.59;71.26;94281.50;5072401;28;20217;-69
2024/01/06 05:31:40;;;;;;;15.40;10.07;;;;;;;10.58;71.17;94261.97;5072472;28;20182;-71
2024/01/06 05:34:07;;;;;;;16.40;9.57;;;;;;;10.57;71.11;94279.06;5071967;28;20654;-76
2024/01/06 05:36:34;;;;;;;16.80;10.17;;;;;;;10.52;71.15;94259.06;5071808;28;20222;-70
2024/01/06 05:39:01;;;;;;;15.53;9.37;;;;;;;10.35;71.16;94233.50;5071953;28;20243;-72
2024/01/06 05:41:27;;;;;;;16.43;10.53;;;;;;;10.54;71.19;94262.28;5071823;28;20191;-67
2024/01/06 05:43:54;;;;;;;18.03;10.33;;;;;;;10.52;71.19;94271.84;5071955;28;20688;-72
2024/01/06 05:46:22;;;;;;;21.37;9.77;;;;;;;10.49;71.21;94277.28;5071935;28;20623;-74
2024/01/06 05:48:51;;;;;;;18.53;9.90;;;;;;;10.50;71.12;94266.09;5071557;28;20218;-73
2024/01/06 05:51:17;;;;;;;18.97;10.03;;;;;;;10.29;71.22;94232.34;5071751;28;20194;-76
2024/01/06 05:53:44;;;;;;;18.97;9.17;;;;;;;10.38;71.23;94254.47;5071605;28;20194;-77
2024/01/06 05:56:11;;;;;;;13.00;9.10;;;;;;;10.49;71.38;94259.38;5070374;28;20221;-77
2024/01/06 05:58:38;;;;;;;18.00;10.40;;;;;;;10.44;71.28;94259.00;5071432;28;20267;-73
2024/01/06 06:01:05;;;;;;;20.10;10.00;;;;;;;10.47;71.24;94265.56;5070852;28;20688;-71
2024/01/06 06:03:31;;;;;;;16.13;9.43;;;;;;;10.46;71.32;94264.78;5073181;28;20195;-70
2024/01/06 06:06:00;;;;;;;17.87;10.07;;;;;;;10.46;71.22;94275.00;5072661;28;20207;-73
2024/01/06 06:08:26;;;;;;;13.73;9.63;;;;;;;10.45;71.24;94275.16;5071359;28;20665;-75
2024/01/06 06:11:01;;;;;;;18.37;9.83;;;;;;;10.37;71.12;94255.44;5071116;28;20716;-74
2024/01/06 06:13:28;;;;;;;15.07;9.57;;;;;;;10.44;71.24;94261.53;5072088;28;20676;-70
2024/01/06 06:15:55;;;;;;;18.27;9.03;;;;;;;10.38;71.18;94256.22;5071167;28;20310;-75
2024/01/06 06:18:22;;;;;;;14.13;9.63;;;;;;;10.45;71.24;94258.06;5077844;28;20186;-76
2024/01/06 06:20:49;;;;;;;18.87;9.33;;;;;;;10.46;71.27;94272.44;5084989;28;20676;-74
2024/01/06 06:23:17;;;;;;;13.57;9.60;;;;;;;10.39;71.01;94247.59;5084434;28;20186;-73
2024/01/06 06:25:44;;;;;;;14.77;9.23;;;;;;;10.49;71.28;94276.44;5072344;28;20239;-77
2024/01/06 06:28:11;;;;;;;12.97;8.57;;;;;;;10.48;71.23;94262.84;5070657;28;20696;-72
2024/01/06 06:30:37;;;;;;;16.43;10.10;;;;;;;10.50;71.13;94268.63;5070224;28;20183;-75
2024/01/06 06:33:05;;;;;;;12.63;8.70;;;;;;;10.52;71.21;94284.63;5070834;28;20194;-71
2024/01/06 06:35:31;;;;;;;10.90;8.63;;;;;;;10.53;71.15;94270.09;5071015;28;20214;-75
2024/01/06 06:37:59;;;;;;;17.13;9.60;;;;;;;10.55;71.14;94278.41;5070717;28;20198;-71
2024/01/06 06:40:27;;;;;;;15.10;9.57;;;;;;;10.58;71.11;94267.91;5070777;28;20236;-74
2024/01/06 06:42:54;;;;;;;15.07;9.10;;;;;;;10.25;70.85;94215.72;5070559;28;20194;-73
2024/01/06 06:45:22;;;;;;;13.10;8.70;;;;;;;10.64;71.12;94266.50;5069603;28;20191;-75
2024/01/06 06:47:49;;;;;;;15.47;8.90;;;;;;;10.69;70.80;94282.19;5070582;28;20183;-79
2024/01/06 06:50:17;;;;;;;16.23;9.00;;;;;;;10.73;70.90;94283.50;5071373;28;20646;-66
2024/01/06 06:52:45;;;;;;;13.97;8.90;;;;;;;10.78;70.84;94261.63;5070618;28;20527;-69
2024/01/06 06:55:12;;;;;;;17.93;9.00;;;;;;;10.74;70.52;94270.56;5070575;28;20315;-70
2024/01/06 06:57:40;;;;;;;15.17;9.97;;;;;;;10.91;70.61;94268.13;5069688;28;20193;-67
2024/01/06 07:00:08;;;;;;;12.87;9.87;;;;;;;10.96;70.50;94271.81;5070355;28;20214;-65
2024/01/06 07:02:35;;;;;;;15.87;9.93;;;;;;;11.05;70.38;94275.25;5067229;28;20198;-70
2024/01/06 07:05:02;;;;;;;15.83;9.37;;;;;;;11.11;70.26;94273.84;5068181;28;20202;-70
2024/01/06 07:07:28;;;;;;;15.37;10.03;;;;;;;11.12;69.94;94252.41;5078447;28;20205;-69
2024/01/06 07:09:55;;;;;;;14.47;8.77;;;;;;;11.24;69.78;94269.94;5080072;28;20190;-68
2024/01/06 07:12:22;;;;;;;14.67;9.10;;;;;;;11.36;69.79;94260.22;5072511;28;20209;-66
2024/01/06 07:14:50;;;;;;;19.30;9.70;;;;;;;11.50;70.45;94272.44;5067892;28;20209;-69
2024/01/06 07:17:17;;;;;;;18.63;8.80;;;;;;;11.69;72.30;94260.34;5067900;28;20221;-70
2024/01/06 07:19:44;;;;;;;14.30;9.37;;;;;;;11.88;74.09;94264.47;5067454;28;20198;-74
2024/01/06 07:22:11;;;;;;;13.10;8.60;;;;;;;12.08;75.22;94272.66;5066306;28;20254;-68
2024/01/06 07:24:38;;;;;;;15.47;8.77;;;;;;;12.25;75.72;94258.91;5071013;28;20197;-74
2024/01/06 07:27:05;;;;;;;11.30;8.10;;;;;;;12.44;76.03;94271.44;5073607;28;20229;-74
2024/01/06 07:29:32;;;;;;;18.67;8.80;;;;;;;12.62;75.68;94261.03;5072607;28;20229;-67
2024/01/06 07:32:00;;;;;;;14.47;9.73;;;;;;;12.52;75.47;94216.75;5069119;28;20189;-68
2024/01/06 07:34:27;;;;;;;15.97;9.47;;;;;;;12.73;74.99;94224.75;5067901;28;20194;-74
2024/01/06 07:36:54;;;;;;;15.03;8.97;;;;;;;12.84;74.37;94233.91;5067905;28;20233;-75
2024/01/06 07:39:20;;;;;;;12.67;8.97;;;;;;;13.14;73.86;94252.16;5067439;28;20666;-68
2024/01/06 07:41:47;;;;;;;15.70;9.27;;;;;;;13.18;73.07;94249.09;5067685;28;20198;-71
2024/01/06 07:44:15;;;;;;;14.70;8.70;;;;;;;13.26;72.47;94243.16;5067601;28;20194;-73
2024/01/06 07:46:42;;;;;;;16.83;8.87;;;;;;;13.39;71.95;94256.28;5068267;28;20720;-68
2024/01/06 07:49:11;;;;;;;12.03;8.90;;;;;;;13.21;71.45;94217.94;5066905;28;20614;-71
2024/01/06 07:51:37;;;;;;;13.33;8.70;;;;;;;13.45;71.00;94236.84;5068221;28;20194;-84
2024/01/06 07:54:06;;;;;;;12.07;9.00;;;;;;;13.40;70.65;94229.63;5069956;28;20209;-73
2024/01/06 07:56:33;;;;;;;15.77;9.63;;;;;;;13.57;70.13;94250.91;5068942;28;20283;-74
2024/01/06 07:59:00;;;;;;;14.27;9.77;;;;;;;13.55;69.89;94233.09;5067845;28;20198;-77
2024/01/06 08:01:26;;;;;;;17.17;9.20;;;;;;;13.85;69.28;94256.41;5067623;28;20273;-76
2024/01/06 08:03:53;;;;;;;14.93;9.00;;;;;;;13.99;68.87;94250.56;5067265;28;20760;-76
2024/01/06 08:06:22;;;;;;;19.60;11.70;;;;;;;14.08;68.51;94253.09;5067451;28;20267;-73
2024/01/06 08:08:48;;;;;;;15.80;10.13;;;;;;;13.84;68.30;94216.25;5067277;28;20185;-73
2024/01/06 08:11:15;;;;;;;15.63;10.17;;;;;;;14.18;68.06;94257.03;5067130;28;20237;-76
2024/01/06 08:13:42;;;;;;;16.70;10.13;;;;;;;14.21;67.83;94266.19;5067554;28;20186;-74
2024/01/06 08:16:09;;;;;;;19.63;9.63;;;;;;;14.24;67.69;94243.47;5067708;28;20282;-76
2024/01/06 08:18:36;;;;;;;19.30;10.77;;;;;;;14.10;67.58;94236.50;5068614;28;20564;-81
2024/01/06 08:21:03;;;;;;;19.90;10.73;;;;;;;14.28;67.38;94257.59;5070689;28;20669;-76
2024/01/06 08:23:31;;;;;;;20.23;12.13;;;;;;;14.29;67.20;94251.50;5071015;28;20577;-76
2024/01/06 08:25:58;;;;;;;15.67;10.80;;;;;;;14.08;67.01;94223.03;5070759;28;20198;-75
2024/01/06 08:28:25;;;;;;;22.57;11.27;;;;;;;14.32;66.91;94256.28;5071027;28;20533;-70
2024/01/06 08:30:52;;;;;;;17.13;11.43;;;;;;;14.43;66.67;94251.72;5070016;28;20584;-71
2024/01/06 08:33:18;;;;;;;20.20;12.67;;;;;;;14.55;66.34;94269.19;5070881;28;20182;-72
2024/01/06 08:35:45;;;;;;;21.37;12.43;;;;;;;14.59;65.98;94241.31;5070762;28;20213;-72
2024/01/06 08:38:12;;;;;;;18.63;11.93;;;;;;;14.58;65.55;94236.38;5071082;28;20202;-73
2024/01/06 08:40:41;;;;;;;21.53;12.00;;;;;;;14.77;65.65;94252.13;5068002;28;20194;-77
2024/01/06 08:43:09;;;;;;;17.37;11.43;;;;;;;14.89;65.72;94267.94;5067163;28;20200;-79
2024/01/06 08:45:36;;;;;;;19.03;12.10;;;;;;;15.04;65.51;94255.09;5071029;28;20666;-72
2024/01/06 08:48:02;;;;;;;18.40;11.63;;;;;;;15.11;65.39;94265.50;5069489;28;20194;-72
2024/01/06 08:50:29;;;;;;;20.13;11.77;;;;;;;15.07;65.14;94254.78;5070146;28;20198;-72
2024/01/06 08:52:56;;;;;;;16.80;11.30;;;;;;;15.18;64.98;94249.16;5075569;28;20241;-75
2024/01/06 08:55:23;;;;;;;18.13;11.73;;;;;;;15.21;64.92;94260.91;5078584;28;20189;-73
2024/01/06 08:57:51;;;;;;;17.97;11.70;;;;;;;15.27;64.62;94252.47;5076237;28;20221;-76
2024/01/06 09:00:18;;;;;;;29.57;12.77;;;;;;;15.29;64.30;94251.31;5073887;28;20191;-68
2024/01/06 09:02:45;;;;;;;20.57;13.43;;;;;;;15.37;64.19;94244.44;5081488;28;21031;-67
2024/01/06 09:05:12;;;;;;;20.40;12.33;;;;;;;15.42;64.21;94252.47;5083180;28;20225;-71
2024/01/06 09:07:39;;;;;;;19.03;12.13;;;;;;;15.45;63.98;94242.59;5072483;28;20604;-72
2024/01/06 09:10:07;;;;;;;24.47;12.57;;;;;;;15.50;63.79;94224.84;5066473;28;20187;-73
2024/01/06 09:12:34;;;;;;;21.37;12.67;;;;;;;15.55;63.69;94216.56;5069706;28;20309;-69
2024/01/06 09:15:02;;;;;;;24.33;12.73;;;;;;;15.50;63.53;94203.41;5069302;28;20217;-77
2024/01/06 09:17:29;;;;;;;23.57;13.13;;;;;;;15.68;63.38;94215.97;5069917;28;20221;-73
2024/01/06 09:19:55;;;;;;;22.67;14.00;;;;;;;15.41;63.28;94194.16;5068889;28;20689;-66
2024/01/06 09:22:23;;;;;;;22.30;14.13;;;;;;;15.39;63.25;94170.38;5069911;28;20187;-68
2024/01/06 09:24:50;;;;;;;28.20;14.40;;;;;;;15.62;63.10;94206.31;5069073;28;20190;-74
2024/01/06 09:27:17;;;;;;;27.57;13.63;;;;;;;15.48;62.99;94188.13;5066361;28;20203;-68
2024/01/06 09:29:44;;;;;;;23.83;13.33;;;;;;;15.52;62.82;94196.31;5066778;28;20347;-68
2024/01/06 09:32:14;;;;;;;21.77;13.77;;;;;;;14.31;62.82;94020.63;5066090;28;20439;-73
2024/01/06 09:34:40;;;;;;;28.90;15.90;;;;;;;15.50;62.69;94193.91;5066742;28;20191;-73
2024/01/06 09:37:07;;;;;;;22.63;13.47;;;;;;;15.53;62.78;94193.53;5068789;28;20210;-76
2024/01/06 09:39:34;;;;;;;22.20;14.47;;;;;;;15.41;63.30;94160.66;5069790;28;20600;-67
2024/01/06 09:42:01;;;;;;;24.47;14.40;;;;;;;15.52;63.86;94201.44;5069866;28;20685;-73
2024/01/06 09:44:28;;;;;;;28.40;16.57;;;;;;;15.20;63.95;94133.09;5073168;28;20207;-76
2024/01/06 09:46:59;;;;;;;24.13;16.20;;;;;;;15.44;64.17;94175.78;5074659;28;20194;-71
2024/01/06 09:49:32;;;;;;;25.00;15.63;;;;;;;15.37;64.27;94174.88;5069891;28;20226;-73
2024/01/06 09:52:00;;;;;;;26.60;15.40;;;;;;;15.32;64.22;94168.50;5067096;28;20190;-75
2024/01/06 09:54:33;;;;;;;24.47;16.40;;;;;;;15.32;64.36;94157.41;5067648;28;20201;-67
2024/01/06 09:57:01;;;;;;;24.73;15.93;;;;;;;15.11;64.24;94132.41;5068855;28;20210;-76
2024/01/06 09:59:34;;;;;;;26.13;15.70;;;;;;;15.22;64.32;94147.38;5067670;28;20233;-66
2024/01/06 10:02:02;;;;;;;33.03;16.77;;;;;;;15.28;64.22;94159.56;5068425;28;20218;-72
2024/01/06 10:04:30;;;;;;;24.17;16.70;;;;;;;15.25;64.14;94157.34;5065839;28;20202;-79
2024/01/06 10:06:57;;;;;;;25.93;16.70;;;;;;;15.26;64.23;94140.88;5067703;28;20255;-76
2024/01/06 10:09:28;;;;;;;26.10;16.97;;;;;;;15.24;64.05;94142.03;5068187;28;20229;-76
2024/01/06 10:11:56;;;;;;;27.00;16.87;;;;;;;15.24;64.05;94144.59;5068278;28;20233;-74
2024/01/06 10:14:24;;;;;;;27.47;15.97;;;;;;;15.16;64.00;94124.94;5067515;28;20768;-72
2024/01/06 10:16:51;;;;;;;34.17;15.67;;;;;;;15.18;63.92;94127.31;5068779;28;20210;-68
2024/01/06 10:19:18;;;;;;;26.80;16.37;;;;;;;15.20;63.73;94115.06;5069842;28;20251;-68
2024/01/06 10:21:46;;;;;;;29.93;17.23;;;;;;;15.12;63.81;94110.81;5067768;28;20206;-67
2024/01/06 10:24:13;;;;;;;30.80;16.43;;;;;;;15.27;63.74;94127.03;5066890;28;20201;-65
2024/01/06 10:26:40;;;;;;;30.50;16.20;;;;;;;15.27;63.63;94126.22;5066789;28;20279;-65
2024/01/06 10:29:07;;;;;;;19.83;14.80;;;;;;;15.28;63.36;94110.63;5067823;28;20269;-64
2024/01/06 10:31:34;;;;;;;29.93;16.03;;;;;;;15.29;63.35;94127.66;5067777;28;20618;-63
2024/01/06 10:34:01;;;;;;;24.23;14.93;;;;;;;15.31;63.35;94101.72;5067505;28;20182;-63
2024/01/06 10:36:31;;;;;;;27.27;16.20;;;;;;;15.25;63.20;94099.88;5066984;28;20214;-64
2024/01/06 10:39:01;;;;;;;21.90;15.27;;;;;;;15.37;63.17;94095.03;5066532;28;20674;-70
2024/01/06 10:41:30;;;;;;;22.57;15.00;;;;;;;15.39;62.87;94113.69;5067159;28;20218;-71
2024/01/06 10:44:01;;;;;;;26.33;16.10;;;;;;;15.38;62.88;94092.28;5067424;28;20202;-70
2024/01/06 10:46:29;;;;;;;33.97;17.00;;;;;;;15.43;62.98;94089.94;5067140;28;20183;-64
2024/01/06 10:48:58;;;;;;;24.43;15.70;;;;;;;15.14;62.84;94036.72;5067277;28;20308;-70
2024/01/06 10:51:26;;;;;;;24.50;15.13;;;;;;;15.45;62.65;94077.66;5066129;28;20638;-65
2024/01/06 10:53:54;;;;;;;24.13;15.80;;;;;;;15.46;62.71;94087.03;5066729;28;20197;-73
2024/01/06 10:56:24;;;;;;;26.43;15.20;;;;;;;15.47;62.49;94078.31;5067262;28;20217;-68
2024/01/06 10:58:52;;;;;;;22.00;16.17;;;;;;;15.50;62.48;94077.13;5067045;28;20186;-73
2024/01/06 11:01:22;;;;;;;23.27;14.90;;;;;;;15.54;62.50;94076.59;5074049;28;20211;-73
2024/01/06 11:03:49;;;;;;;22.30;15.23;;;;;;;15.59;62.37;94065.75;5076655;28;20269;-67
2024/01/06 11:06:18;;;;;;;25.57;16.03;;;;;;;15.65;62.09;94059.88;5073545;28;20313;-72
2024/01/06 11:08:50;;;;;;;23.53;14.60;;;;;;;15.62;62.05;94041.38;5069859;28;20198;-66
2024/01/06 11:11:19;;;;;;;25.40;14.37;;;;;;;15.64;62.17;94055.69;5066913;28;20233;-74
2024/01/06 11:13:47;;;;;;;22.43;14.90;;;;;;;15.70;62.03;94047.22;5066408;28;20962;-72
2024/01/06 11:16:34;;;;;;;20.80;14.43;;;;;;;15.56;61.78;94010.19;5067666;28;20816;-74
2024/01/06 11:19:01;;;;;;;23.57;14.13;;;;;;;15.74;61.68;94045.06;5070659;28;20185;-75